Time;durP1;ratioP1;P1;durP2;ratioP2;P2;SDS_P1;SDS_P2;PMS_P1;PMS_P2;Temp;Humidity;BMP_temperature;BMP_pressure;BME280_temperature;BME280_humidity;BME280_pressure;Samples;Min_cycle;Max_cycle;Signal;HPM_P1;HPM_P2
2023/04/14 00:00:40;;;;;;;10.85;3.50;;;9.60;99.90;;;;;;5029851;28;20661;-74
2023/04/14 00:03:06;;;;;;;6.65;3.00;;;9.60;99.90;;;;;;5031143;28;20036;-74
2023/04/14 00:05:33;;;;;;;10.38;2.95;;;9.70;99.90;;;;;;5031425;28;20402;-74
2023/04/14 00:07:59;;;;;;;12.80;3.20;;;9.70;99.90;;;;;;5031047;28;20396;-74
2023/04/14 00:10:25;;;;;;;9.88;3.22;;;9.70;99.90;;;;;;5030354;28;20236;-74
2023/04/14 00:12:51;;;;;;;11.88;3.28;;;9.70;99.90;;;;;;5014282;28;20048;-75
2023/04/14 00:15:18;;;;;;;17.95;3.70;;;9.60;99.90;;;;;;5030397;28;20044;-74
2023/04/14 00:17:44;;;;;;;11.85;3.92;;;9.70;99.90;;;;;;5030883;28;20036;-73
2023/04/14 00:20:10;;;;;;;9.68;3.20;;;9.60;99.90;;;;;;5031221;28;20034;-75
2023/04/14 00:22:36;;;;;;;10.80;3.40;;;9.70;99.90;;;;;;5030724;28;20057;-74
2023/04/14 00:25:02;;;;;;;14.13;3.50;;;9.60;99.90;;;;;;5031568;28;20475;-74
2023/04/14 00:27:29;;;;;;;12.05;2.90;;;9.60;99.90;;;;;;5030728;28;20033;-75
2023/04/14 00:29:56;;;;;;;15.32;3.50;;;9.60;99.90;;;;;;5030899;28;20042;-74
2023/04/14 00:32:22;;;;;;;11.38;2.83;;;9.60;99.90;;;;;;5030404;28;20037;-74
2023/04/14 00:34:48;;;;;;;14.10;3.10;;;9.60;99.90;;;;;;5031163;28;20029;-74
2023/04/14 00:37:15;;;;;;;12.85;2.97;;;9.60;99.90;;;;;;5030751;28;20379;-74
2023/04/14 00:39:41;;;;;;;20.27;3.53;;;9.50;99.90;;;;;;5031229;28;20451;-74
2023/04/14 00:42:07;;;;;;;8.32;3.08;;;9.60;99.90;;;;;;5030739;28;20026;-74
2023/04/14 00:44:33;;;;;;;12.13;3.20;;;9.60;99.90;;;;;;5030594;28;20022;-74
2023/04/14 00:47:00;;;;;;;10.98;3.10;;;9.50;99.90;;;;;;5031554;28;20033;-74
2023/04/14 00:49:26;;;;;;;11.30;3.42;;;9.50;99.90;;;;;;5031030;28;20484;-74
2023/04/14 00:51:52;;;;;;;9.75;3.63;;;9.60;99.90;;;;;;5010890;28;20065;-74
2023/04/14 00:54:18;;;;;;;15.38;3.03;;;9.50;99.90;;;;;;5011283;28;20034;-75
2023/04/14 00:56:45;;;;;;;15.07;3.22;;;9.60;99.90;;;;;;5013236;28;20041;-74
2023/04/14 00:59:12;;;;;;;18.33;3.60;;;9.60;99.90;;;;;;5031244;28;20029;-74
2023/04/14 01:01:39;;;;;;;11.85;3.30;;;9.60;99.90;;;;;;5033742;28;20033;-75
2023/04/14 01:04:05;;;;;;;9.27;3.38;;;9.70;99.90;;;;;;5034001;28;20030;-74
2023/04/14 01:06:32;;;;;;;10.10;3.30;;;9.70;99.90;;;;;;5033819;28;20037;-74
2023/04/14 01:08:58;;;;;;;11.77;3.60;;;9.70;99.90;;;;;;5034047;28;20034;-74
2023/04/14 01:11:34;;;;;;;10.75;3.63;;;9.70;99.90;;;;;;5032495;28;20052;-74
2023/04/14 01:14:08;;;;;;;12.30;3.17;;;9.60;99.90;;;;;;5034153;28;20029;-74
2023/04/14 01:16:41;;;;;;;11.10;3.15;;;9.70;99.90;;;;;;5033552;28;20030;-74
2023/04/14 01:19:25;;;;;;;16.13;3.72;;;9.70;99.90;;;;;;5032205;28;20034;-74
2023/04/14 01:21:55;;;;;;;11.70;3.55;;;9.70;99.90;;;;;;5035236;28;20033;-74
2023/04/14 01:24:58;;;;;;;16.02;3.50;;;9.60;99.90;;;;;;5033477;28;20472;-74
2023/04/14 01:27:30;;;;;;;16.88;3.55;;;9.60;99.90;;;;;;5034325;28;20044;-74
2023/04/14 01:30:19;;;;;;;14.23;3.58;;;9.60;99.90;;;;;;5034702;28;20033;-74
2023/04/14 01:32:45;;;;;;;14.93;3.65;;;9.60;99.90;;;;;;5052594;28;20032;-74
2023/04/14 01:35:16;;;;;;;13.45;3.70;;;9.60;99.90;;;;;;5053644;28;20040;-74
2023/04/14 01:37:47;;;;;;;11.93;3.92;;;9.50;99.90;;;;;;5053381;28;20037;-73
2023/04/14 01:40:15;;;;;;;16.25;3.65;;;9.50;99.90;;;;;;5034874;28;20033;-74
2023/04/14 01:42:53;;;;;;;15.80;3.50;;;9.60;99.90;;;;;;5049864;28;20033;-74
2023/04/14 01:45:24;;;;;;;11.15;3.53;;;9.60;99.90;;;;;;5034803;28;20025;-74
2023/04/14 01:47:50;;;;;;;14.63;3.60;;;9.60;99.90;;;;;;5069245;28;20036;-74
2023/04/14 01:50:17;;;;;;;12.20;3.40;;;9.60;99.90;;;;;;5046703;28;20053;-75
2023/04/14 01:52:46;;;;;;;10.48;3.67;;;9.70;99.90;;;;;;5033175;28;20072;-74
2023/04/14 01:55:14;;;;;;;16.05;4.20;;;9.60;99.90;;;;;;5034678;28;20021;-74
2023/04/14 01:57:41;;;;;;;12.98;3.70;;;9.70;99.90;;;;;;5036822;28;20041;-74
2023/04/14 02:00:07;;;;;;;10.18;3.22;;;9.70;99.90;;;;;;5051745;28;20033;-74
2023/04/14 02:02:34;;;;;;;14.23;3.53;;;9.70;99.90;;;;;;5031038;28;20052;-74
2023/04/14 02:05:00;;;;;;;17.90;4.47;;;9.70;99.90;;;;;;5032791;28;20029;-74
2023/04/14 02:07:26;;;;;;;10.85;3.90;;;9.70;99.90;;;;;;5036905;28;20491;-74
2023/04/14 02:09:52;;;;;;;17.75;3.70;;;9.70;99.90;;;;;;5032167;28;20455;-74
2023/04/14 02:12:19;;;;;;;15.48;4.60;;;9.60;99.90;;;;;;5030808;28;20054;-75
2023/04/14 02:14:45;;;;;;;14.30;3.95;;;9.60;99.90;;;;;;5015216;28;20046;-75
2023/04/14 02:17:11;;;;;;;12.90;4.00;;;9.60;99.90;;;;;;5017670;28;20037;-74
2023/04/14 02:19:37;;;;;;;11.90;3.45;;;9.70;99.90;;;;;;5041921;28;20029;-75
2023/04/14 02:22:04;;;;;;;11.90;4.30;;;9.70;99.90;;;;;;5051433;28;20060;-75
2023/04/14 02:24:30;;;;;;;13.57;3.78;;;9.70;99.90;;;;;;5050213;28;20025;-75
2023/04/14 02:27:11;;;;;;;12.38;3.67;;;9.70;99.90;;;;;;5017669;28;20041;-75
2023/04/14 02:29:38;;;;;;;12.48;3.50;;;9.50;99.90;;;;;;5016622;28;20037;-75
2023/04/14 02:32:06;;;;;;;18.73;4.00;;;9.20;99.90;;;;;;5030159;28;20056;-75
2023/04/14 02:34:36;;;;;;;24.35;4.00;;;9.10;99.90;;;;;;5031292;28;20033;-74
2023/04/14 02:37:11;;;;;;;16.90;4.20;;;9.10;99.90;;;;;;5046102;28;20028;-74
2023/04/14 02:39:41;;;;;;;20.58;3.97;;;9.10;99.90;;;;;;5051416;28;20025;-74
2023/04/14 02:42:13;;;;;;;13.10;3.65;;;9.10;99.90;;;;;;5051845;28;20505;-74
2023/04/14 02:44:42;;;;;;;;;;;9.20;99.90;;;;;;5052609;28;20037;-74
2023/04/14 02:47:09;;;;;;;13.50;3.83;;;9.20;99.90;;;;;;5034632;28;20271;-74
2023/04/14 02:49:45;;;;;;;12.32;3.35;;;9.30;99.90;;;;;;5034646;28;20414;-74
2023/04/14 02:52:13;;;;;;;12.35;3.47;;;9.20;99.90;;;;;;5031915;28;20056;-75
2023/04/14 02:54:40;;;;;;;11.20;3.30;;;9.20;99.90;;;;;;5036689;28;20024;-74
2023/04/14 02:57:06;;;;;;;13.07;3.63;;;9.10;99.90;;;;;;5052140;28;20029;-75
2023/04/14 02:59:32;;;;;;;11.43;3.47;;;9.10;99.90;;;;;;5051801;28;20033;-74
2023/04/14 03:02:00;;;;;;;8.82;3.30;;;9.10;99.90;;;;;;5051500;28;20515;-74
2023/04/14 03:04:34;;;;;;;13.88;3.42;;;9.10;99.90;;;;;;5051134;28;20021;-74
2023/04/14 03:07:00;;;;;;;20.83;4.30;;;9.20;99.90;;;;;;5035078;28;20064;-75
2023/04/14 03:09:27;;;;;;;13.88;3.92;;;9.30;99.90;;;;;;5034538;28;20479;-74
2023/04/14 03:11:53;;;;;;;17.60;4.10;;;9.30;99.90;;;;;;5051075;28;20037;-74
2023/04/14 03:14:20;;;;;;;15.90;3.53;;;9.20;99.90;;;;;;5050967;28;20021;-74
2023/04/14 03:16:46;;;;;;;13.18;3.20;;;9.10;99.90;;;;;;5051180;28;20036;-74
2023/04/14 03:19:12;;;;;;;16.55;3.90;;;9.10;99.90;;;;;;5051704;28;20464;-74
2023/04/14 03:21:39;;;;;;;18.60;3.90;;;9.10;99.90;;;;;;5051685;28;20033;-74
2023/04/14 03:24:05;;;;;;;14.73;3.25;;;9.10;99.90;;;;;;5049567;28;20029;-74
2023/04/14 03:26:32;;;;;;;12.77;3.40;;;9.00;99.90;;;;;;5050669;28;20522;-74
2023/04/14 03:28:58;;;;;;;11.30;3.33;;;9.00;99.90;;;;;;5051183;28;20021;-74
2023/04/14 03:31:31;;;;;;;12.38;2.90;;;8.90;99.90;;;;;;5050099;28;20055;-74
2023/04/14 03:33:57;;;;;;;14.65;3.50;;;8.90;99.90;;;;;;5051436;28;20132;-74
2023/04/14 03:36:24;;;;;;;9.88;2.88;;;8.90;99.90;;;;;;5051391;28;20411;-74
2023/04/14 03:38:54;;;;;;;16.77;4.03;;;8.90;99.90;;;;;;5051596;28;20029;-74
2023/04/14 03:41:20;;;;;;;13.65;3.85;;;8.80;99.90;;;;;;5042857;28;20036;-74
2023/04/14 03:43:46;;;;;;;18.48;4.15;;;8.80;99.90;;;;;;5030825;28;20033;-74
2023/04/14 03:46:12;;;;;;;20.15;3.72;;;8.80;99.90;;;;;;5014496;28;20040;-74
2023/04/14 03:48:41;;;;;;;15.00;3.63;;;8.90;99.90;;;;;;5031322;28;20030;-74
2023/04/14 03:51:08;;;;;;;15.27;3.63;;;8.90;99.90;;;;;;5027771;28;20045;-74
2023/04/14 03:53:35;;;;;;;15.88;3.85;;;8.90;99.90;;;;;;5051111;28;20028;-74
2023/04/14 03:56:01;;;;;;;15.02;3.33;;;8.80;99.90;;;;;;5050435;28;20501;-74
2023/04/14 03:58:27;;;;;;;15.07;3.15;;;8.80;99.90;;;;;;5050706;28;20036;-73
2023/04/14 04:00:53;;;;;;;20.67;3.60;;;8.70;99.90;;;;;;5050531;28;20025;-73
2023/04/14 04:03:19;;;;;;;12.93;3.70;;;8.70;99.90;;;;;;5051140;28;20029;-74
2023/04/14 04:05:45;;;;;;;16.60;4.13;;;8.70;99.90;;;;;;5050389;28;20025;-73
2023/04/14 04:08:11;;;;;;;22.45;4.30;;;8.80;99.90;;;;;;5050962;28;20483;-74
2023/04/14 04:10:38;;;;;;;19.50;4.00;;;8.70;99.90;;;;;;5033586;28;20037;-73
2023/04/14 04:13:10;;;;;;;14.60;3.47;;;8.70;99.90;;;;;;5032484;28;20031;-74
2023/04/14 04:15:36;;;;;;;14.27;3.63;;;8.70;99.90;;;;;;5033597;28;20036;-74
2023/04/14 04:18:03;;;;;;;12.63;3.47;;;8.70;99.90;;;;;;5032408;28;20024;-73
2023/04/14 04:20:29;;;;;;;13.02;3.50;;;8.60;99.90;;;;;;5030665;28;20038;-74
2023/04/14 04:22:55;;;;;;;10.80;3.72;;;8.60;99.90;;;;;;5024913;28;20021;-73
2023/04/14 04:25:26;;;;;;;388.88;40.05;;;8.60;99.90;;;;;;5033395;28;20029;-76
2023/04/14 04:27:52;;;;;;;15.30;3.55;;;8.70;99.90;;;;;;5049055;28;20029;-73
2023/04/14 04:30:18;;;;;;;14.60;3.40;;;8.80;99.90;;;;;;5045384;28;20044;-72
2023/04/14 04:32:44;;;;;;;16.23;3.33;;;8.70;99.90;;;;;;5014406;28;20060;-73
2023/04/14 04:35:10;;;;;;;19.50;3.72;;;8.70;99.90;;;;;;5042736;28;20028;-73
2023/04/14 04:37:37;;;;;;;8.00;3.30;;;8.70;99.90;;;;;;5054731;28;20043;-73
2023/04/14 04:40:03;;;;;;;14.77;3.90;;;8.60;99.90;;;;;;5054597;28;20037;-73
2023/04/14 04:42:29;;;;;;;11.13;3.00;;;8.50;99.90;;;;;;5052748;28;20041;-72
2023/04/14 04:44:55;;;;;;;13.23;3.08;;;8.40;99.90;;;;;;5054496;28;20040;-73
2023/04/14 04:47:22;;;;;;;11.27;2.80;;;8.40;99.90;;;;;;5017308;28;20440;-73
2023/04/14 04:49:48;;;;;;;14.05;3.40;;;8.30;99.90;;;;;;5034603;28;20029;-72
2023/04/14 04:52:14;;;;;;;18.17;3.20;;;8.30;99.90;;;;;;5045005;28;20048;-73
2023/04/14 04:54:40;;;;;;;76.75;7.40;;;8.40;99.90;;;;;;5055442;28;20037;-73
2023/04/14 04:57:06;;;;;;;19.75;3.72;;;8.50;99.90;;;;;;5051661;28;20048;-72
2023/04/14 04:59:32;;;;;;;17.02;3.22;;;8.50;99.90;;;;;;5054229;28;20029;-72
2023/04/14 05:01:58;;;;;;;11.82;3.85;;;8.40;99.90;;;;;;5054880;28;20040;-72
2023/04/14 05:04:24;;;;;;;19.85;3.75;;;8.40;99.90;;;;;;5054139;28;20100;-73
2023/04/14 05:06:50;;;;;;;15.60;3.60;;;8.40;99.90;;;;;;5055343;28;20028;-73
2023/04/14 05:09:16;;;;;;;8.95;3.15;;;8.50;99.90;;;;;;5053552;28;20044;-73
2023/04/14 05:11:42;;;;;;;8.52;3.33;;;8.40;99.90;;;;;;5052110;28;20044;-72
2023/04/14 05:14:09;;;;;;;17.80;3.88;;;8.40;99.90;;;;;;5053306;28;20033;-73
2023/04/14 05:16:35;;;;;;;15.77;3.80;;;8.30;99.90;;;;;;5053407;28;20040;-73
2023/04/14 05:19:01;;;;;;;17.15;4.07;;;8.40;99.90;;;;;;5055038;28;20033;-73
2023/04/14 05:21:27;;;;;;;6.32;2.80;;;8.30;99.90;;;;;;5049723;28;20036;-73
2023/04/14 05:23:53;;;;;;;44.05;4.38;;;8.30;99.90;;;;;;5035039;28;20034;-73
2023/04/14 05:26:21;;;;;;;21.10;3.33;;;8.30;99.90;;;;;;5043927;28;20033;-73
2023/04/14 05:28:47;;;;;;;17.60;3.88;;;8.30;99.90;;;;;;5052675;28;20039;-73
2023/04/14 05:31:13;;;;;;;12.65;3.60;;;8.30;99.90;;;;;;5053761;28;20059;-73
2023/04/14 05:33:39;;;;;;;20.05;3.30;;;8.30;99.90;;;;;;5053719;28;20033;-73
2023/04/14 05:36:05;;;;;;;15.65;3.65;;;8.30;99.90;;;;;;5053450;28;20021;-73
2023/04/14 05:38:31;;;;;;;14.90;3.30;;;8.30;99.90;;;;;;5053713;28;20041;-73
2023/04/14 05:40:57;;;;;;;11.95;3.03;;;8.40;99.90;;;;;;5053178;28;20029;-73
2023/04/14 05:43:24;;;;;;;14.02;3.63;;;8.40;99.90;;;;;;5052300;28;20033;-73
2023/04/14 05:45:50;;;;;;;8.27;3.08;;;8.40;99.90;;;;;;5051123;28;20421;-73
2023/04/14 05:48:16;;;;;;;13.95;3.38;;;8.40;99.90;;;;;;5052918;28;20029;-73
2023/04/14 05:50:42;;;;;;;10.10;3.90;;;8.50;99.90;;;;;;5054393;28;20036;-73
2023/04/14 05:53:10;;;;;;;11.85;3.25;;;8.50;99.90;;;;;;5053091;28;20399;-73
2023/04/14 05:55:41;;;;;;;14.25;3.65;;;8.50;99.90;;;;;;5052978;28;20091;-74
2023/04/14 05:58:07;;;;;;;14.90;3.30;;;8.60;99.90;;;;;;5053128;28;20029;-73
2023/04/14 06:00:33;;;;;;;13.93;3.00;;;8.60;99.90;;;;;;5052196;28;20475;-73
2023/04/14 06:02:59;;;;;;;10.45;3.50;;;8.50;99.90;;;;;;5053089;28;20045;-73
2023/04/14 06:05:25;;;;;;;9.93;3.53;;;8.50;99.90;;;;;;5053007;28;20032;-73
2023/04/14 06:07:51;;;;;;;79.50;8.52;;;8.60;99.90;;;;;;5053627;28;20418;-73
2023/04/14 06:10:18;;;;;;;14.15;2.80;;;8.50;99.90;;;;;;5036220;28;20044;-73
2023/04/14 06:12:44;;;;;;;13.00;3.58;;;8.50;99.90;;;;;;5035954;28;20510;-73
2023/04/14 06:15:10;;;;;;;6.78;2.33;;;8.50;99.90;;;;;;5051943;28;20380;-73
2023/04/14 06:17:36;;;;;;;5.68;3.53;;;8.50;99.90;;;;;;5052833;28;20033;-73
2023/04/14 06:20:03;;;;;;;48.08;5.63;;;8.50;99.90;;;;;;5052662;28;20033;-73
2023/04/14 06:22:29;;;;;;;32.50;3.72;;;8.50;99.90;;;;;;5048557;28;20039;-73
2023/04/14 06:24:58;;;;;;;11.95;3.53;;;8.50;99.90;;;;;;5052477;28;20029;-74
2023/04/14 06:27:24;;;;;;;15.05;2.15;;;8.50;99.90;;;;;;5051976;28;20472;-74
2023/04/14 06:29:51;;;;;;;16.00;4.15;;;8.50;99.90;;;;;;5051026;28;20055;-73
2023/04/14 06:32:20;;;;;;;5.22;2.50;;;8.50;99.90;;;;;;5045602;28;20415;-74
2023/04/14 06:34:49;;;;;;;3.95;1.80;;;8.60;99.90;;;;;;5022459;28;20071;-74
2023/04/14 06:37:15;;;;;;;6.15;2.80;;;8.60;99.90;;;;;;5049113;28;20033;-74
2023/04/14 06:39:41;;;;;;;6.57;2.55;;;8.60;99.90;;;;;;5032743;28;20047;-74
2023/04/14 06:42:11;;;;;;;9.25;3.15;;;8.60;99.90;;;;;;5048951;28;20396;-74
2023/04/14 06:44:40;;;;;;;9.68;3.60;;;8.60;99.90;;;;;;5037291;28;20021;-74
2023/04/14 06:47:06;;;;;;;6.32;2.80;;;8.70;99.90;;;;;;5034436;28;20044;-73
2023/04/14 06:49:33;;;;;;;8.20;2.60;;;8.70;99.90;;;;;;5050753;28;20423;-73
2023/04/14 06:51:59;;;;;;;8.07;2.88;;;8.70;99.90;;;;;;5052710;28;20395;-74
2023/04/14 06:54:25;;;;;;;7.85;2.55;;;8.80;99.90;;;;;;5053456;28;20502;-74
2023/04/14 06:56:51;;;;;;;9.52;4.50;;;8.70;99.90;;;;;;5051713;28;20040;-74
2023/04/14 06:59:19;;;;;;;10.93;4.00;;;8.70;99.90;;;;;;5042959;28;20044;-73
2023/04/14 07:01:45;;;;;;;13.93;6.95;;;8.80;99.90;;;;;;5015813;28;20037;-75
2023/04/14 07:04:14;;;;;;;7.35;2.90;;;8.80;99.90;;;;;;5038449;28;20022;-75
2023/04/14 07:06:40;;;;;;;25.30;3.67;;;8.80;99.90;;;;;;5052661;28;20372;-76
2023/04/14 07:09:06;;;;;;;9.32;2.70;;;8.80;99.90;;;;;;5051662;28;20025;-76
2023/04/14 07:11:32;;;;;;;4.57;2.45;;;8.80;99.90;;;;;;5050940;28;20036;-75
2023/04/14 07:13:58;;;;;;;5.47;3.70;;;8.80;99.90;;;;;;5051962;28;20037;-75
2023/04/14 07:16:24;;;;;;;9.02;2.70;;;8.80;99.90;;;;;;5050304;28;20032;-76
2023/04/14 07:18:50;;;;;;;3.30;2.05;;;8.80;99.90;;;;;;5051592;28;20028;-76
2023/04/14 07:21:17;;;;;;;6.47;2.33;;;8.80;99.90;;;;;;5049174;28;20033;-76
2023/04/14 07:23:43;;;;;;;9.13;2.75;;;8.90;99.90;;;;;;5043442;28;20029;-75
2023/04/14 07:26:09;;;;;;;8.35;2.20;;;9.00;99.90;;;;;;5042428;28;20484;-76
2023/04/14 07:28:36;;;;;;;6.18;2.60;;;9.00;99.90;;;;;;5037623;28;20025;-76
2023/04/14 07:31:07;;;;;;;5.25;2.28;;;9.00;99.90;;;;;;5050141;28;20025;-75
2023/04/14 07:33:34;;;;;;;7.57;2.33;;;9.00;99.90;;;;;;5050686;28;20044;-76
2023/04/14 07:36:03;;;;;;;8.20;3.22;;;9.00;99.90;;;;;;5052092;28;20073;-76
2023/04/14 07:38:31;;;;;;;8.55;2.83;;;9.10;99.90;;;;;;5050719;28;20025;-75
2023/04/14 07:40:57;;;;;;;5.22;2.38;;;9.10;99.90;;;;;;5050821;28;20028;-76
2023/04/14 07:43:23;;;;;;;7.65;2.50;;;9.00;99.90;;;;;;5032925;28;20394;-76
2023/04/14 07:45:50;;;;;;;7.95;2.83;;;8.90;99.90;;;;;;5041929;28;20029;-76
2023/04/14 07:48:18;;;;;;;6.15;2.65;;;9.00;99.90;;;;;;5032718;28;20036;-76
2023/04/14 07:50:45;;;;;;;5.93;3.00;;;9.10;99.90;;;;;;5050365;28;20056;-75
2023/04/14 07:53:11;;;;;;;103.97;7.47;;;9.10;99.90;;;;;;5034272;28;20507;-76
2023/04/14 07:55:38;;;;;;;8.60;2.42;;;9.20;99.90;;;;;;5050473;28;20221;-81
2023/04/14 07:58:04;;;;;;;9.15;2.03;;;9.20;99.90;;;;;;5047250;28;20044;-76
2023/04/14 08:00:30;;;;;;;6.97;2.35;;;9.30;99.90;;;;;;5050576;28;20056;-75
2023/04/14 08:02:56;;;;;;;6.20;2.47;;;9.20;99.90;;;;;;5051246;28;20464;-75
2023/04/14 08:05:22;;;;;;;3.70;1.98;;;9.30;99.90;;;;;;5051548;28;20636;-76
2023/04/14 08:07:48;;;;;;;4.13;2.35;;;9.40;99.90;;;;;;5051609;28;20033;-73
2023/04/14 08:10:14;;;;;;;4.72;2.20;;;9.50;99.90;;;;;;5051554;28;20044;-71
2023/04/14 08:12:40;;;;;;;17.70;2.88;;;9.50;99.90;;;;;;5050761;28;20044;-73
2023/04/14 08:15:08;;;;;;;3.70;2.47;;;9.50;99.90;;;;;;5051625;28;20048;-74
2023/04/14 08:17:34;;;;;;;5.20;2.78;;;9.50;99.90;;;;;;5050421;28;20032;-73
2023/04/14 08:20:00;;;;;;;7.30;2.22;;;9.50;99.90;;;;;;5050028;28;20036;-73
2023/04/14 08:22:26;;;;;;;3.60;2.53;;;9.50;99.90;;;;;;5039842;28;20357;-73
2023/04/14 08:24:52;;;;;;;3.63;2.15;;;9.60;99.90;;;;;;5045944;28;20036;-73
2023/04/14 08:27:19;;;;;;;4.68;2.88;;;9.60;99.90;;;;;;5048721;28;20041;-74
2023/04/14 08:29:45;;;;;;;5.57;3.03;;;9.70;99.90;;;;;;5049779;28;20033;-72
2023/04/14 08:32:11;;;;;;;5.75;2.70;;;9.80;99.90;;;;;;5046340;28;20418;-73
2023/04/14 08:34:37;;;;;;;4.82;2.60;;;9.80;99.90;;;;;;5050340;28;20022;-73
2023/04/14 08:37:03;;;;;;;5.07;2.67;;;9.80;99.90;;;;;;5033458;28;20041;-73
2023/04/14 08:39:29;;;;;;;6.82;2.20;;;9.80;99.90;;;;;;5050585;28;20029;-73
2023/04/14 08:41:57;;;;;;;2.53;2.08;;;9.80;99.90;;;;;;5050260;28;20041;-73
2023/04/14 08:44:23;;;;;;;3.22;2.33;;;9.80;99.90;;;;;;5051647;28;20025;-73
2023/04/14 08:46:51;;;;;;;4.43;2.47;;;9.90;99.90;;;;;;5033260;28;20033;-73
2023/04/14 08:49:41;;;;;;;4.07;2.30;;;10.00;99.90;;;;;;5047856;28;20029;-73
2023/04/14 08:52:11;;;;;;;15.65;5.78;;;10.10;99.90;;;;;;5034013;28;20045;-73
2023/04/14 08:54:40;;;;;;;3.25;2.47;;;10.10;99.90;;;;;;5030699;28;20022;-73
2023/04/14 08:57:08;;;;;;;3.83;2.20;;;10.30;99.90;;;;;;5042643;28;20036;-70
2023/04/14 08:59:34;;;;;;;3.30;2.60;;;10.30;99.90;;;;;;5049945;28;20044;-74
2023/04/14 09:02:00;;;;;;;3.95;2.95;;;10.40;99.90;;;;;;5049693;28;20029;-73
2023/04/14 09:04:27;;;;;;;5.03;2.90;;;10.30;99.90;;;;;;5050467;28;20025;-73
2023/04/14 09:06:53;;;;;;;3.35;2.65;;;10.40;99.90;;;;;;5049828;28;20030;-73
2023/04/14 09:09:19;;;;;;;6.20;2.97;;;10.50;99.90;;;;;;5051557;28;20058;-73
2023/04/14 09:11:45;;;;;;;74.70;5.78;;;10.60;99.90;;;;;;5041966;28;20025;-73
2023/04/14 09:14:11;;;;;;;4.28;2.60;;;10.70;99.90;;;;;;5066623;28;20055;-74
2023/04/14 09:16:37;;;;;;;7.95;2.70;;;10.60;99.90;;;;;;5034362;28;20395;-73
2023/04/14 09:19:03;;;;;;;5.95;3.22;;;10.60;99.90;;;;;;5032925;28;20037;-73
2023/04/14 09:21:30;;;;;;;5.07;2.63;;;10.60;99.90;;;;;;5049540;28;20357;-73
2023/04/14 09:23:56;;;;;;;6.30;3.15;;;10.70;99.90;;;;;;5053351;28;20036;-73
2023/04/14 09:26:22;;;;;;;4.40;2.47;;;10.80;99.90;;;;;;5050886;28;20463;-73
2023/04/14 09:28:48;;;;;;;3.55;2.60;;;11.00;99.90;;;;;;5050498;28;20036;-73
2023/04/14 09:31:14;;;;;;;90.10;5.65;;;11.10;99.90;;;;;;5020484;28;20104;-74
2023/04/14 09:33:44;;;;;;;5.70;2.63;;;11.10;99.90;;;;;;5051355;28;20037;-74
2023/04/14 09:36:17;;;;;;;9.98;2.92;;;11.20;99.90;;;;;;5032379;28;20041;-74
2023/04/14 09:38:43;;;;;;;7.07;2.85;;;11.20;99.90;;;;;;5033284;28;20022;-74
2023/04/14 09:41:26;;;;;;;12.00;2.83;;;11.30;99.90;;;;;;5050934;28;20045;-74
2023/04/14 09:43:52;;;;;;;4.43;2.55;;;11.30;99.90;;;;;;5033238;28;20024;-74
2023/04/14 09:46:19;;;;;;;10.63;2.92;;;11.40;99.90;;;;;;5035982;28;20033;-74
2023/04/14 09:48:52;;;;;;;8.43;3.20;;;11.40;99.90;;;;;;5053062;28;20017;-74
2023/04/14 09:51:23;;;;;;;15.48;3.70;;;11.40;99.90;;;;;;5052140;28;20056;-75
2023/04/14 09:53:49;;;;;;;8.75;3.50;;;11.50;99.90;;;;;;5033055;28;20041;-74
2023/04/14 09:56:15;;;;;;;13.13;3.83;;;11.60;99.90;;;;;;5032582;28;20411;-75
2023/04/14 09:58:42;;;;;;;13.73;3.50;;;11.70;99.90;;;;;;5050038;28;20128;-74
2023/04/14 10:01:18;;;;;;;20.02;4.15;;;11.80;99.90;;;;;;5052551;28;20029;-74
2023/04/14 10:03:46;;;;;;;16.83;4.10;;;11.90;99.90;;;;;;5054091;28;20029;-74
2023/04/14 10:06:12;;;;;;;24.60;4.63;;;12.00;99.90;;;;;;5052465;28;20479;-74
2023/04/14 10:08:40;;;;;;;21.95;5.35;;;12.10;99.90;;;;;;5053799;28;20029;-74
2023/04/14 10:11:24;;;;;;;19.35;4.68;;;12.20;99.90;;;;;;5035815;28;20025;-73
2023/04/14 10:13:58;;;;;;;21.08;6.40;;;12.30;99.90;;;;;;5053734;28;20048;-74
2023/04/14 10:16:25;;;;;;;24.90;6.00;;;12.40;99.90;;;;;;5050503;28;20040;-74
2023/04/14 10:18:52;;;;;;;19.45;5.88;;;12.50;99.90;;;;;;5052491;28;20096;-74
2023/04/14 10:21:21;;;;;;;23.33;5.65;;;12.50;99.90;;;;;;5049716;28;20475;-74
2023/04/14 10:23:47;;;;;;;27.13;5.53;;;12.60;99.90;;;;;;5032571;28;20025;-73
2023/04/14 10:26:14;;;;;;;18.25;5.10;;;12.70;99.90;;;;;;5042946;28;20048;-74
2023/04/14 10:28:44;;;;;;;18.00;5.63;;;12.80;99.90;;;;;;5051293;28;20040;-74
2023/04/14 10:31:26;;;;;;;13.87;4.50;;;13.00;99.90;;;;;;5050043;28;20041;-74
2023/04/14 10:33:52;;;;;;;21.40;7.57;;;13.30;99.90;;;;;;5015287;28;20307;-74
2023/04/14 10:36:26;;;;;;;14.23;4.47;;;13.60;99.90;;;;;;5041479;28;20029;-74
2023/04/14 10:39:00;;;;;;;12.63;4.50;;;13.90;99.90;;;;;;5051629;28;20491;-74
2023/04/14 10:41:26;;;;;;;12.07;4.70;;;14.20;99.90;;;;;;5033741;28;20040;-74
2023/04/14 10:43:52;;;;;;;12.30;5.03;;;14.40;99.90;;;;;;5041060;28;20033;-74
2023/04/14 10:46:19;;;;;;;11.02;4.70;;;14.50;99.90;;;;;;5058238;28;20460;-75
2023/04/14 10:48:47;;;;;;;14.55;6.07;;;14.60;99.90;;;;;;5048407;28;20033;-74
2023/04/14 10:51:15;;;;;;;11.13;3.67;;;14.60;99.90;;;;;;5033241;28;20119;-74
2023/04/14 10:53:46;;;;;;;14.73;4.18;;;14.60;99.90;;;;;;5066345;28;20036;-75
2023/04/14 10:56:12;;;;;;;10.38;4.00;;;14.60;99.90;;;;;;5038566;28;20036;-75
2023/04/14 10:58:38;;;;;;;12.23;4.43;;;14.50;99.90;;;;;;5050555;28;20037;-74
2023/04/14 11:01:24;;;;;;;15.85;4.85;;;14.50;99.90;;;;;;5051071;28;20029;-74
2023/04/14 11:03:54;;;;;;;10.13;4.55;;;14.60;99.90;;;;;;5051389;28;20028;-74
2023/04/14 11:06:46;;;;;;;11.52;3.92;;;14.60;99.90;;;;;;5049166;28;20025;-75
2023/04/14 11:09:25;;;;;;;16.23;4.60;;;14.80;99.90;;;;;;5032595;28;20036;-74
2023/04/14 11:11:51;;;;;;;12.45;4.70;;;15.00;99.90;;;;;;5031569;28;20041;-75
2023/04/14 11:14:27;;;;;;;17.33;4.82;;;15.10;99.90;;;;;;5030435;28;20045;-74
2023/04/14 11:17:03;;;;;;;17.35;5.72;;;15.10;99.90;;;;;;5025804;28;20383;-75
2023/04/14 11:19:29;;;;;;;17.02;5.18;;;15.00;99.90;;;;;;5050763;28;20044;-74
2023/04/14 11:21:56;;;;;;;13.52;5.03;;;15.00;99.90;;;;;;5042954;28;20038;-74
2023/04/14 11:24:22;;;;;;;20.45;5.20;;;14.90;99.90;;;;;;5031168;28;20386;-75
2023/04/14 11:26:53;;;;;;;15.63;5.43;;;14.80;99.90;;;;;;5042943;28;20081;-74
2023/04/14 11:29:19;;;;;;;14.13;4.47;;;14.70;99.90;;;;;;5050936;28;20035;-74
2023/04/14 11:31:45;;;;;;;16.20;5.38;;;14.60;99.90;;;;;;5049557;28;20060;-74
2023/04/14 11:34:11;;;;;;;18.25;5.72;;;14.50;99.90;;;;;;5050972;28;20029;-75
2023/04/14 11:36:38;;;;;;;14.75;6.43;;;14.40;99.90;;;;;;5050195;28;20032;-75
2023/04/14 11:39:05;;;;;;;15.32;5.25;;;14.40;99.90;;;;;;5051987;28;20487;-74
2023/04/14 11:41:31;;;;;;;19.27;5.05;;;14.30;99.90;;;;;;5050103;28;20024;-74
2023/04/14 11:43:57;;;;;;;17.45;5.43;;;14.10;99.90;;;;;;5033407;28;20029;-74
2023/04/14 11:46:24;;;;;;;18.15;5.72;;;14.10;99.90;;;;;;5049169;28;20029;-74
2023/04/14 11:48:54;;;;;;;17.92;5.00;;;14.10;99.90;;;;;;5033474;28;20044;-74
2023/04/14 11:51:26;;;;;;;16.50;4.65;;;14.10;99.90;;;;;;5051495;28;20041;-74
2023/04/14 11:53:54;;;;;;;15.38;4.65;;;14.20;99.90;;;;;;5034704;28;20036;-75
2023/04/14 11:56:20;;;;;;;13.82;4.20;;;14.30;99.90;;;;;;5032191;28;20044;-75
2023/04/14 11:58:46;;;;;;;15.45;5.38;;;14.30;99.90;;;;;;5050815;28;20628;-74
2023/04/14 12:01:13;;;;;;;17.33;4.75;;;14.30;99.90;;;;;;5051184;28;20029;-74
2023/04/14 12:03:40;;;;;;;16.23;4.32;;;14.40;99.90;;;;;;5051678;28;20029;-74
2023/04/14 12:06:06;;;;;;;14.57;5.65;;;14.50;99.90;;;;;;5049930;28;20032;-75
2023/04/14 12:08:32;;;;;;;18.38;6.00;;;14.60;99.90;;;;;;5033030;28;20479;-74
2023/04/14 12:11:12;;;;;;;16.92;5.75;;;14.70;99.90;;;;;;5033643;28;20033;-74
2023/04/14 12:13:45;;;;;;;12.82;4.95;;;14.60;99.90;;;;;;5051441;28;20056;-74
2023/04/14 12:16:12;;;;;;;12.38;5.13;;;14.70;99.90;;;;;;5050927;28;20033;-75
2023/04/14 12:18:38;;;;;;;14.73;4.88;;;14.60;99.90;;;;;;5050084;28;20044;-75
2023/04/14 12:21:05;;;;;;;13.55;5.00;;;14.60;99.90;;;;;;5048903;28;20041;-74
2023/04/14 12:23:38;;;;;;;14.90;4.65;;;14.50;99.90;;;;;;5031529;28;20375;-74
2023/04/14 12:26:11;;;;;;;11.45;4.47;;;14.40;99.90;;;;;;5034305;28;20033;-74
2023/04/14 12:28:40;;;;;;;8.77;4.00;;;14.30;99.90;;;;;;5050295;28;20380;-74
2023/04/14 12:31:06;;;;;;;8.23;3.58;;;13.90;99.90;;;;;;5050131;28;20040;-74
2023/04/14 12:33:32;;;;;;;9.50;3.50;;;13.50;99.90;;;;;;5049887;28;20070;-74
2023/04/14 12:36:11;;;;;;;10.43;3.30;;;13.30;99.90;;;;;;5045429;28;20025;-74
2023/04/14 12:38:37;;;;;;;7.65;3.63;;;13.20;99.90;;;;;;5030247;28;20032;-74
2023/04/14 12:41:04;;;;;;;10.93;3.40;;;12.90;99.90;;;;;;5039988;28;20407;-73
2023/04/14 12:43:34;;;;;;;9.05;3.72;;;12.90;99.90;;;;;;5049743;28;20048;-74
2023/04/14 12:46:04;;;;;;;10.63;3.75;;;12.80;99.90;;;;;;5048852;28;20036;-74
2023/04/14 12:48:43;;;;;;;12.70;3.78;;;12.80;99.90;;;;;;5051181;28;20479;-74
2023/04/14 12:51:11;;;;;;;11.70;3.97;;;12.70;99.90;;;;;;5033567;28;20270;-74